createdAt,value
2023-03-30T00:01:33.147Z,5.10
2023-03-30T00:04:03.074Z,4.79
2023-03-30T00:06:34.373Z,4.51
2023-03-30T00:09:06.446Z,4.46
2023-03-30T00:11:38.111Z,4.21
2023-03-30T00:14:06.958Z,4.30
2023-03-30T00:16:35.825Z,4.07
2023-03-30T00:19:06.233Z,4.10
2023-03-30T00:21:35.865Z,4.00
2023-03-30T00:24:05.789Z,4.11
2023-03-30T00:26:34.551Z,3.95
2023-03-30T00:29:04.534Z,3.87
2023-03-30T00:31:34.127Z,3.92
2023-03-30T00:34:03.754Z,4.07
2023-03-30T00:36:37.413Z,3.89
2023-03-30T00:39:08.631Z,3.83
2023-03-30T00:41:38.323Z,3.85
2023-03-30T00:45:06.809Z,3.84
2023-03-30T00:47:42.228Z,3.83
2023-03-30T00:50:12.819Z,3.81
2023-03-30T00:52:45.381Z,3.82
2023-03-30T00:55:14.716Z,3.89
2023-03-30T00:57:44.824Z,3.84
2023-03-30T01:00:15.133Z,3.87
2023-03-30T01:02:59.784Z,3.76
2023-03-30T01:05:31.179Z,3.84
2023-03-30T01:08:00.634Z,3.88
2023-03-30T01:10:29.425Z,4.07
2023-03-30T01:12:58.201Z,4.24
2023-03-30T01:15:35.514Z,4.09
2023-03-30T01:18:55.028Z,4.09
2023-03-30T01:22:08.144Z,4.15
2023-03-30T01:25:29.955Z,4.03
2023-03-30T01:28:37.094Z,4.21
2023-03-30T01:31:43.177Z,3.79
2023-03-30T01:34:44.315Z,3.86
2023-03-30T01:38:41.886Z,3.97
2023-03-30T01:41:38.519Z,4.01
2023-03-30T01:44:51.795Z,4.05
2023-03-30T01:48:04.805Z,3.97
2023-03-30T01:50:46.870Z,4.12
2023-03-30T01:53:33.610Z,4.39
2023-03-30T01:56:49.223Z,4.38
2023-03-30T02:00:01.744Z,4.59
2023-03-30T02:02:33.662Z,4.48
2023-03-30T02:05:06.589Z,4.67
2023-03-30T02:07:38.273Z,4.67
2023-03-30T02:10:12.294Z,4.74
2023-03-30T02:12:42.489Z,4.81
2023-03-30T02:15:14.283Z,4.61
2023-03-30T02:17:46.174Z,4.53
2023-03-30T02:20:17.804Z,4.20
2023-03-30T02:22:47.390Z,4.10
2023-03-30T02:25:17.682Z,4.07
2023-03-30T02:27:46.909Z,4.15
2023-03-30T02:30:16.479Z,4.17
2023-03-30T02:32:57.170Z,4.32
2023-03-30T02:36:08.239Z,4.32
2023-03-30T02:38:54.863Z,4.46
2023-03-30T02:41:56.638Z,4.42
2023-03-30T02:45:26.508Z,4.52
2023-03-30T02:48:11.081Z,4.56
2023-03-30T02:50:51.875Z,4.53
2023-03-30T02:54:00.104Z,4.34
2023-03-30T02:56:42.286Z,4.40
2023-03-30T02:59:19.752Z,4.32
2023-03-30T03:02:13.162Z,4.46
2023-03-30T03:04:43.796Z,4.36
2023-03-30T03:07:14.728Z,4.46
2023-03-30T03:09:43.546Z,4.30
2023-03-30T03:12:13.801Z,4.21
2023-03-30T03:14:43.511Z,3.97
2023-03-30T03:17:13.855Z,3.91
2023-03-30T03:19:41.809Z,3.94
2023-03-30T03:22:11.374Z,3.71
2023-03-30T03:24:41.053Z,3.42
2023-03-30T03:27:11.175Z,3.58
2023-03-30T03:29:39.966Z,3.32
2023-03-30T03:32:09.527Z,3.33
2023-03-30T03:34:39.805Z,3.45
2023-03-30T03:37:09.326Z,3.32
2023-03-30T03:39:39.797Z,3.20
2023-03-30T03:42:08.329Z,3.30
2023-03-30T03:44:38.466Z,3.43
2023-03-30T03:47:07.313Z,3.33
2023-03-30T03:49:36.288Z,3.33
2023-03-30T03:52:04.223Z,3.52
2023-03-30T03:54:33.184Z,3.65
2023-03-30T03:57:02.226Z,3.38
2023-03-30T03:59:31.160Z,3.14
2023-03-30T04:02:00.272Z,3.34
2023-03-30T04:04:28.268Z,3.33
2023-03-30T04:06:56.512Z,3.12
2023-03-30T04:09:26.253Z,3.24
2023-03-30T04:11:54.094Z,2.94
2023-03-30T04:14:22.886Z,3.01
2023-03-30T04:16:51.780Z,3.23
2023-03-30T04:19:20.609Z,3.34
2023-03-30T04:21:50.174Z,3.21
2023-03-30T04:24:19.871Z,3.19
2023-03-30T04:26:50.149Z,3.36
2023-03-30T04:29:22.821Z,3.51
2023-03-30T04:31:52.549Z,3.36
2023-03-30T04:34:22.051Z,3.60
2023-03-30T04:36:50.855Z,3.48
2023-03-30T04:39:21.055Z,3.55
2023-03-30T04:41:52.441Z,3.47
2023-03-30T04:44:22.308Z,3.57
2023-03-30T04:46:51.225Z,3.66
2023-03-30T04:49:20.959Z,3.94
2023-03-30T04:51:49.917Z,3.91
2023-03-30T04:54:18.861Z,4.21
2023-03-30T04:56:46.762Z,4.00
2023-03-30T04:59:16.881Z,3.78
2023-03-30T05:01:46.982Z,3.95
2023-03-30T05:04:16.737Z,3.94
2023-03-30T05:06:46.437Z,4.17
2023-03-30T05:09:15.814Z,4.27
2023-03-30T05:11:45.421Z,3.94
2023-03-30T05:14:16.028Z,4.13
2023-03-30T05:16:44.905Z,4.42
2023-03-30T05:19:14.590Z,4.64
2023-03-30T05:21:44.379Z,4.59
2023-03-30T05:24:15.036Z,4.65
2023-03-30T05:26:44.083Z,4.60
2023-03-30T05:29:13.876Z,4.88
2023-03-30T05:31:43.583Z,4.84
2023-03-30T05:34:13.339Z,5.23
2023-03-30T05:36:43.050Z,5.19
2023-03-30T05:39:13.517Z,5.31
2023-03-30T05:41:42.374Z,5.43
2023-03-30T05:44:11.500Z,5.58
2023-03-30T05:46:40.346Z,5.35
2023-03-30T05:49:09.134Z,5.45
2023-03-30T05:51:37.956Z,5.22
2023-03-30T05:54:07.125Z,5.23
2023-03-30T05:56:35.892Z,5.07
2023-03-30T05:59:05.420Z,5.44
2023-03-30T06:01:33.762Z,5.37
2023-03-30T06:04:04.424Z,5.91
2023-03-30T06:06:34.077Z,5.83
2023-03-30T06:09:04.812Z,6.07
2023-03-30T06:11:33.575Z,6.21
2023-03-30T06:14:03.129Z,6.10
2023-03-30T06:16:32.780Z,6.48
2023-03-30T06:19:01.521Z,7.23
2023-03-30T06:21:31.078Z,7.77
2023-03-30T06:23:59.854Z,7.45
2023-03-30T06:26:29.758Z,9.19
2023-03-30T06:28:58.639Z,9.36
2023-03-30T06:31:29.101Z,12.25
2023-03-30T06:33:58.261Z,13.64
2023-03-30T06:36:45.171Z,10.72
2023-03-30T06:39:15.735Z,15.57
2023-03-30T06:41:44.458Z,15.68
2023-03-30T06:44:16.923Z,16.42
2023-03-30T06:46:46.399Z,15.16
2023-03-30T06:49:15.296Z,15.94
2023-03-30T06:51:44.869Z,11.32
2023-03-30T06:54:13.682Z,11.30
2023-03-30T06:56:43.241Z,14.43
2023-03-30T06:59:12.006Z,16.50
2023-03-30T07:01:41.924Z,14.50
2023-03-30T07:04:10.974Z,15.65
2023-03-30T07:06:40.032Z,15.91
2023-03-30T07:09:09.090Z,14.69
2023-03-30T07:11:38.665Z,11.01
2023-03-30T07:14:07.718Z,10.76
2023-03-30T07:16:36.628Z,9.98
2023-03-30T07:19:05.905Z,9.85
2023-03-30T07:21:34.873Z,9.78
2023-03-30T07:24:03.590Z,10.05
2023-03-30T07:26:33.083Z,9.92
2023-03-30T07:29:01.925Z,10.01
2023-03-30T07:31:31.636Z,10.06
2023-03-30T07:34:00.547Z,9.73
2023-03-30T07:36:30.146Z,9.47
2023-03-30T07:38:59.402Z,9.36
2023-03-30T07:41:28.229Z,9.86
2023-03-30T07:43:56.928Z,10.22
2023-03-30T07:46:26.823Z,10.57
2023-03-30T07:48:55.229Z,10.70
2023-03-30T07:51:25.930Z,10.91
2023-03-30T07:53:56.691Z,11.68
2023-03-30T07:56:25.394Z,11.57
2023-03-30T07:58:53.232Z,12.39
2023-03-30T08:01:22.025Z,12.62
2023-03-30T08:03:51.072Z,11.62
2023-03-30T08:06:19.812Z,11.99
2023-03-30T08:08:48.073Z,12.18
2023-03-30T08:11:16.864Z,11.16
2023-03-30T08:13:46.219Z,11.50
2023-03-30T08:16:15.390Z,11.44
2023-03-30T08:18:44.232Z,11.77
2023-03-30T08:21:13.871Z,11.76
2023-03-30T08:23:42.598Z,12.15
2023-03-30T08:26:11.639Z,11.88
2023-03-30T08:28:40.420Z,11.82
2023-03-30T08:31:11.020Z,12.03
2023-03-30T08:33:39.994Z,12.13
2023-03-30T08:36:08.008Z,12.08
2023-03-30T08:38:37.043Z,12.02
2023-03-30T08:41:54.105Z,12.73
2023-03-30T08:44:28.740Z,12.27
2023-03-30T08:46:57.527Z,12.36
2023-03-30T08:49:29.325Z,12.66
2023-03-30T08:52:06.610Z,12.18
2023-03-30T08:54:35.463Z,12.76
2023-03-30T08:57:26.580Z,12.03
2023-03-30T09:00:21.465Z,12.26
2023-03-30T09:03:11.671Z,12.61
2023-03-30T09:05:53.370Z,12.54
2023-03-30T09:08:29.320Z,12.66
2023-03-30T09:11:04.971Z,12.39
2023-03-30T09:13:38.199Z,12.21
2023-03-30T09:16:49.913Z,11.78
2023-03-30T09:19:33.753Z,11.67
2023-03-30T09:22:06.795Z,11.90
2023-03-30T09:24:35.996Z,11.73
2023-03-30T09:27:55.870Z,11.72
2023-03-30T09:30:45.831Z,11.82
2023-03-30T09:33:58.456Z,11.73
2023-03-30T09:36:58.231Z,11.59
2023-03-30T09:39:32.278Z,11.75
2023-03-30T09:42:36.656Z,12.01
2023-03-30T09:45:31.422Z,12.50
2023-03-30T09:48:10.052Z,13.36
2023-03-30T09:50:47.571Z,13.70
2023-03-30T09:53:27.078Z,13.33
2023-03-30T09:56:13.646Z,13.70
2023-03-30T09:58:42.640Z,14.30
2023-03-30T10:01:20.784Z,14.10
2023-03-30T10:04:12.867Z,13.82
2023-03-30T10:06:51.806Z,13.81
2023-03-30T10:09:24.438Z,13.91
2023-03-30T10:11:55.923Z,14.54
2023-03-30T10:14:35.799Z,14.07
2023-03-30T10:17:06.173Z,14.72
2023-03-30T10:19:38.946Z,15.09
2023-03-30T10:22:19.184Z,14.24
2023-03-30T10:24:57.471Z,14.80
2023-03-30T10:27:36.908Z,15.25
2023-03-30T10:30:13.123Z,15.40
2023-03-30T10:32:49.638Z,15.41
2023-03-30T10:35:36.190Z,14.81
2023-03-30T10:38:08.636Z,14.83
2023-03-30T10:40:42.494Z,15.22
2023-03-30T10:43:22.314Z,15.47
2023-03-30T10:46:01.531Z,14.55
2023-03-30T10:49:13.486Z,15.42
2023-03-30T10:52:45.959Z,15.45
2023-03-30T10:55:41.913Z,15.42
2023-03-30T10:58:46.488Z,15.41
2023-03-30T11:01:50.554Z,15.29
2023-03-30T11:05:17.922Z,15.21
2023-03-30T11:08:32.612Z,15.60
2023-03-30T11:11:01.755Z,14.94
2023-03-30T11:14:02.085Z,15.10
2023-03-30T11:16:40.719Z,15.32
2023-03-30T11:19:36.976Z,15.45
2023-03-30T11:23:13.941Z,15.67
2023-03-30T11:26:13.856Z,15.23
2023-03-30T11:29:15.888Z,15.78
2023-03-30T11:32:25.353Z,16.26
2023-03-30T11:35:24.765Z,16.43
2023-03-30T11:38:19.961Z,16.14
2023-03-30T11:41:10.488Z,16.02
2023-03-30T11:43:39.253Z,15.67
2023-03-30T11:46:36.204Z,15.73
2023-03-30T11:49:47.998Z,15.79
2023-03-30T11:52:39.457Z,15.68
2023-03-30T11:55:51.549Z,15.50
2023-03-30T11:59:07.170Z,16.08
2023-03-30T12:01:56.532Z,16.09
2023-03-30T12:04:39.944Z,16.24
2023-03-30T12:08:24.151Z,15.89
2023-03-30T12:11:07.619Z,15.56
2023-03-30T12:13:50.241Z,15.15
2023-03-30T12:16:38.382Z,14.68
2023-03-30T12:19:56.229Z,14.20
2023-03-30T12:22:56.041Z,14.24
2023-03-30T12:26:10.313Z,13.97
2023-03-30T12:29:26.156Z,13.76
2023-03-30T12:31:56.217Z,13.96
2023-03-30T12:34:29.757Z,14.18
2023-03-30T12:37:35.263Z,14.39
2023-03-30T12:40:10.706Z,14.84
2023-03-30T12:43:02.308Z,15.01
2023-03-30T12:45:34.086Z,15.39
2023-03-30T12:48:53.367Z,15.45
2023-03-30T12:51:53.636Z,15.24
2023-03-30T12:55:04.374Z,15.28
2023-03-30T12:57:54.940Z,15.12
2023-03-30T13:01:05.898Z,15.23
2023-03-30T13:04:10.904Z,15.49
2023-03-30T13:06:59.178Z,15.00
2023-03-30T13:09:28.134Z,15.38
2023-03-30T13:11:55.896Z,15.11
2023-03-30T13:14:35.872Z,15.12
2023-03-30T13:17:06.364Z,15.49
2023-03-30T13:19:38.549Z,15.33
2023-03-30T13:22:13.292Z,15.58
2023-03-30T13:25:02.858Z,15.17
2023-03-30T13:27:38.503Z,15.62
2023-03-30T13:30:10.235Z,15.41
2023-03-30T13:33:12.699Z,15.23
2023-03-30T13:36:11.066Z,14.96
2023-03-30T13:39:35.888Z,14.83
2023-03-30T13:42:19.753Z,14.84
2023-03-30T13:45:09.433Z,14.65
2023-03-30T13:47:57.470Z,14.50
2023-03-30T13:50:31.532Z,14.57
2023-03-30T13:53:09.765Z,14.81
2023-03-30T13:55:50.056Z,14.77
2023-03-30T13:58:32.868Z,14.67
2023-03-30T14:01:11.458Z,14.62
2023-03-30T14:03:55.651Z,14.59
2023-03-30T14:06:32.077Z,14.78
2023-03-30T14:09:17.609Z,14.69
2023-03-30T14:12:04.983Z,14.49
2023-03-30T14:14:47.263Z,14.47
2023-03-30T14:17:23.808Z,14.64
2023-03-30T14:20:25.032Z,14.54
2023-03-30T14:22:58.733Z,14.44
2023-03-30T14:25:36.768Z,14.56
2023-03-30T14:28:17.925Z,14.65
2023-03-30T14:31:19.792Z,14.59
2023-03-30T14:33:49.599Z,14.68
2023-03-30T14:36:21.058Z,14.83
2023-03-30T14:38:52.397Z,14.76
2023-03-30T14:41:28.015Z,14.83
2023-03-30T14:44:06.586Z,14.75
2023-03-30T14:46:40.572Z,14.68
2023-03-30T14:49:29.543Z,14.70
2023-03-30T14:52:18.574Z,14.86
2023-03-30T14:55:06.090Z,14.88
2023-03-30T14:57:40.851Z,14.57
2023-03-30T15:00:21.399Z,14.75
2023-03-30T15:03:00.104Z,14.76
2023-03-30T15:05:43.010Z,14.94
2023-03-30T15:08:28.119Z,14.96
2023-03-30T15:11:09.529Z,14.87
2023-03-30T15:13:48.647Z,14.81
2023-03-30T15:16:26.363Z,15.10
2023-03-30T15:19:12.491Z,15.01
2023-03-30T15:21:41.933Z,15.30
2023-03-30T15:24:17.993Z,15.37
2023-03-30T15:26:49.744Z,15.51
2023-03-30T15:29:22.758Z,15.47
2023-03-30T15:32:15.456Z,15.34
2023-03-30T15:35:29.809Z,15.18
2023-03-30T15:38:02.244Z,14.96
2023-03-30T15:40:46.497Z,15.04
2023-03-30T15:43:22.082Z,15.08
2023-03-30T15:46:06.797Z,15.14
2023-03-30T15:48:48.024Z,14.98
2023-03-30T15:51:39.149Z,15.07
2023-03-30T15:54:42.100Z,14.81
2023-03-30T15:57:13.360Z,14.64
2023-03-30T16:00:01.943Z,14.79
2023-03-30T16:02:38.614Z,14.69
2023-03-30T16:05:22.629Z,14.65
2023-03-30T16:07:52.483Z,14.78
2023-03-30T16:10:33.350Z,14.62
2023-03-30T16:13:03.167Z,14.63
2023-03-30T16:15:33.916Z,14.65
2023-03-30T16:18:03.570Z,14.43
2023-03-30T16:20:33.528Z,14.49
2023-03-30T16:23:04.671Z,14.40
2023-03-30T16:25:44.721Z,14.00
2023-03-30T16:28:18.766Z,13.84
2023-03-30T16:30:53.432Z,14.26
2023-03-30T16:33:23.040Z,14.33
2023-03-30T16:35:51.996Z,14.26
2023-03-30T16:38:20.888Z,14.30
2023-03-30T16:40:59.227Z,14.12
2023-03-30T16:43:27.989Z,14.17
2023-03-30T16:45:57.126Z,13.97
2023-03-30T16:48:27.190Z,13.78
2023-03-30T16:50:59.396Z,13.68
2023-03-30T16:53:28.081Z,13.70
2023-03-30T16:55:59.010Z,13.59
2023-03-30T16:58:27.790Z,13.59
2023-03-30T17:01:03.670Z,13.08
2023-03-30T17:03:32.603Z,12.45
2023-03-30T17:06:02.748Z,12.79
2023-03-30T17:08:31.595Z,12.20
2023-03-30T17:11:08.033Z,11.85
2023-03-30T17:13:36.876Z,12.15
2023-03-30T17:16:06.867Z,12.05
2023-03-30T17:18:36.448Z,11.89
2023-03-30T17:21:06.888Z,11.81
2023-03-30T17:23:36.827Z,11.79
2023-03-30T17:26:07.811Z,11.81
2023-03-30T17:28:38.631Z,11.78
2023-03-30T17:31:18.731Z,11.79
2023-03-30T17:33:48.999Z,11.57
2023-03-30T17:36:25.008Z,11.40
2023-03-30T17:38:54.868Z,11.55
2023-03-30T17:41:24.515Z,11.50
2023-03-30T17:43:54.596Z,11.45
2023-03-30T17:46:24.198Z,11.35
2023-03-30T17:48:53.864Z,11.32
2023-03-30T17:51:22.661Z,11.20
2023-03-30T17:53:52.424Z,11.57
2023-03-30T17:56:24.292Z,11.70
2023-03-30T17:58:53.902Z,11.46
2023-03-30T18:01:22.226Z,11.26
2023-03-30T18:03:53.961Z,11.06
2023-03-30T18:06:23.549Z,11.26
2023-03-30T18:08:52.395Z,11.18
2023-03-30T18:11:22.708Z,11.04
2023-03-30T18:13:53.818Z,11.17
2023-03-30T18:16:24.565Z,11.26
2023-03-30T18:18:57.846Z,11.34
2023-03-30T18:21:28.414Z,11.03
2023-03-30T18:23:57.954Z,11.08
2023-03-30T18:26:29.651Z,11.02
2023-03-30T18:28:59.303Z,11.10
2023-03-30T18:31:29.326Z,10.84
2023-03-30T18:33:59.004Z,10.93
2023-03-30T18:36:28.939Z,11.05
2023-03-30T18:38:58.570Z,11.05
2023-03-30T18:41:27.511Z,10.75
2023-03-30T18:43:57.079Z,10.88
2023-03-30T18:46:26.862Z,11.02
2023-03-30T18:48:56.674Z,10.96
2023-03-30T18:51:26.600Z,11.11
2023-03-30T18:53:59.686Z,10.95
2023-03-30T18:56:29.370Z,11.02
2023-03-30T18:58:58.344Z,10.96
2023-03-30T19:01:28.452Z,10.95
2023-03-30T19:03:58.190Z,10.99
2023-03-30T19:06:28.813Z,11.10
2023-03-30T19:08:59.173Z,11.06
2023-03-30T19:11:28.981Z,10.98
2023-03-30T19:14:00.948Z,11.11
2023-03-30T19:16:30.726Z,10.96
2023-03-30T19:18:59.665Z,11.08
2023-03-30T19:21:29.440Z,11.16
2023-03-30T19:23:58.983Z,11.05
2023-03-30T19:26:28.576Z,11.10
2023-03-30T19:28:58.546Z,10.98
2023-03-30T19:31:28.192Z,10.82
2023-03-30T19:33:56.979Z,10.70
2023-03-30T19:36:28.082Z,10.59
2023-03-30T19:38:57.650Z,10.47
2023-03-30T19:41:27.252Z,10.68
2023-03-30T19:43:56.833Z,10.41
2023-03-30T19:46:26.385Z,10.33
2023-03-30T19:48:55.177Z,10.36
2023-03-30T19:51:24.801Z,10.67
2023-03-30T19:53:54.413Z,10.51
2023-03-30T19:56:23.527Z,10.30
2023-03-30T19:58:53.806Z,10.10
2023-03-30T20:01:23.415Z,10.13
2023-03-30T20:03:53.041Z,10.17
2023-03-30T20:06:22.682Z,10.15
2023-03-30T20:08:52.945Z,10.10
2023-03-30T20:11:22.760Z,10.15
2023-03-30T20:13:54.159Z,10.17
2023-03-30T20:16:26.147Z,10.19
2023-03-30T20:18:57.254Z,9.97
2023-03-30T20:21:27.516Z,10.03
2023-03-30T20:23:58.944Z,10.07
2023-03-30T20:26:30.660Z,10.04
2023-03-30T20:29:01.243Z,9.99
2023-03-30T20:31:32.352Z,9.99
2023-03-30T20:34:02.068Z,10.04
2023-03-30T20:36:32.123Z,10.03
2023-03-30T20:39:01.844Z,9.89
2023-03-30T20:41:38.288Z,9.96
2023-03-30T20:44:14.043Z,10.17
2023-03-30T20:46:43.749Z,10.14
2023-03-30T20:49:14.191Z,10.03
2023-03-30T20:51:45.342Z,10.13
2023-03-30T20:54:14.954Z,9.89
2023-03-30T20:56:43.855Z,10.09
2023-03-30T20:59:13.587Z,10.08
2023-03-30T21:01:43.674Z,9.97
2023-03-30T21:04:13.757Z,9.96
2023-03-30T21:06:43.019Z,10.08
2023-03-30T21:09:12.670Z,10.06
2023-03-30T21:11:42.354Z,9.96
2023-03-30T21:14:14.603Z,9.82
2023-03-30T21:16:44.919Z,9.75
2023-03-30T21:19:14.714Z,9.68
2023-03-30T21:21:44.910Z,9.72
2023-03-30T21:24:15.944Z,9.64
2023-03-30T21:26:45.515Z,9.50
2023-03-30T21:29:14.264Z,9.52
2023-03-30T21:31:43.846Z,9.41
2023-03-30T21:34:13.380Z,9.25
2023-03-30T21:36:42.894Z,9.38
2023-03-30T21:39:11.697Z,9.22
2023-03-30T21:41:40.485Z,9.50
2023-03-30T21:44:10.165Z,9.54
2023-03-30T21:46:39.699Z,9.60
2023-03-30T21:49:08.698Z,9.31
2023-03-30T21:51:37.526Z,9.37
2023-03-30T21:54:07.922Z,9.36
2023-03-30T21:56:37.508Z,9.40
2023-03-30T21:59:07.182Z,9.29
2023-03-30T22:01:37.013Z,9.28
2023-03-30T22:04:06.965Z,9.18
2023-03-30T22:06:36.712Z,9.42
2023-03-30T22:09:06.376Z,9.36
2023-03-30T22:11:35.952Z,9.23
2023-03-30T22:14:05.613Z,9.34
2023-03-30T22:16:37.009Z,9.41
2023-03-30T22:19:06.645Z,9.38
2023-03-30T22:21:37.074Z,9.34
2023-03-30T22:24:08.582Z,9.63
2023-03-30T22:26:38.344Z,9.51
2023-03-30T22:29:08.199Z,9.60
2023-03-30T22:31:37.973Z,9.53
2023-03-30T22:34:08.260Z,9.48
2023-03-30T22:36:37.831Z,9.55
2023-03-30T22:39:07.035Z,9.70
2023-03-30T22:41:36.640Z,9.64
2023-03-30T22:44:06.341Z,9.76
2023-03-30T22:46:35.992Z,9.72
2023-03-30T22:49:05.569Z,9.75
2023-03-30T22:51:38.381Z,9.80
2023-03-30T22:54:08.181Z,9.94
2023-03-30T22:56:37.858Z,10.00
2023-03-30T22:59:07.008Z,9.88
2023-03-30T23:01:37.456Z,9.92
2023-03-30T23:04:07.898Z,10.08
2023-03-30T23:06:37.737Z,10.07
2023-03-30T23:09:07.446Z,10.05
2023-03-30T23:11:37.125Z,10.17
2023-03-30T23:14:06.828Z,10.13
2023-03-30T23:16:37.733Z,10.13
2023-03-30T23:19:08.573Z,10.19
2023-03-30T23:21:38.253Z,10.14
2023-03-30T23:24:11.616Z,10.16
2023-03-30T23:26:41.460Z,10.07
2023-03-30T23:29:11.670Z,10.11
2023-03-30T23:31:41.410Z,10.17
2023-03-30T23:34:13.567Z,10.18
2023-03-30T23:36:43.599Z,10.23
2023-03-30T23:39:13.262Z,10.32
2023-03-30T23:41:44.166Z,10.20
2023-03-30T23:44:13.874Z,10.10
2023-03-30T23:46:43.028Z,10.19
2023-03-30T23:49:12.140Z,10.25
2023-03-30T23:51:41.743Z,10.18
2023-03-30T23:54:12.091Z,10.16
2023-03-30T23:56:42.616Z,10.25
2023-03-30T23:59:12.838Z,10.27
